Terminal Aerodrome Forecast
Issued by NWS

Home | Current Version | Previous Version | Text Only | Print | Product List | Glossary On
Versions: 1 2 3 4 5 6 7 8 9 10 11 12 13 14 15
948
FTUS45 KABQ 192333
TAFROW
TAF
KROW 192333Z 2000/2024 25011KT P6SM SCT090 BKN200
     FM200600 29008KT P6SM FEW090
     FM201800 36012G20KT P6SM SKC
     FM202100 36010KT P6SM SKC=

USA.gov is the U.S. government's official web portal to all federal, state and local government web resources and services.